Language: 


Des rapports , des résumés tant et plus, au choix de chacun....


Données statistiques de la station
Quotidien Rapport Septembre 17, 2017 Unités:  Métrique    Anglais   les deux
« Précédent Jour
Suivant Jour »
Quotidien Hebdomadaire Mensuel Annuel Actuel
  Haut: Bas: Moyen:
Température: 21.0 °C 0.0 °C 12.2 °C
Pt de rosée: 14.0 °C 4.0 °C 9 °C
Humidité: 98 % 0 % 82 %
Vitesse du vent: 10.5 km/h 0.0 km/h 1.1 km/h
Rafales: 11.9 km/h - -
Vent:- - West
Pression: 1014.1 hPa 0.0 hPa -
Précipitation: 0.0 mm    
Historical Graphs
 
 
Données statistiques pour Septembre 17, 2017
Heure Température Point de rosée Pression Vent Vitesse du vent Refales Humidité Pluie (taux horaire)
00:02 9.1 °C 9.0 °C 1011.1 hPa Calm     96 % 0.0 mm
00:07 9.2 °C 9.0 °C 1011.1 hPa Calm     96 % 0.0 mm
00:12 9.1 °C 9.0 °C 1011.1 hPa Calm     96 % 0.0 mm
00:17 9.1 °C 9.0 °C 1010.0 hPa Calm     96 % 0.0 mm
00:23 9.0 °C 9.0 °C 1010.0 hPa Calm     96 % 0.0 mm
00:28 8.9 °C 9.0 °C 1010.0 hPa Calm     97 % 0.0 mm
00:33 8.9 °C 9.0 °C 1010.0 hPa Calm     97 % 0.0 mm
00:38 8.7 °C 9.0 °C 1010.0 hPa Calm     97 % 0.0 mm
00:43 8.5 °C 9.0 °C 1010.0 hPa Calm     97 % 0.0 mm
00:48 8.5 °C 9.0 °C 1010.0 hPa Calm     97 % 0.0 mm
00:53 8.4 °C 8.0 °C 1010.0 hPa Calm     97 % 0.0 mm
00:58 8.2 °C 8.0 °C 1010.0 hPa Calm     97 % 0.0 mm
01:03 8.2 °C 8.0 °C 1011.1 hPa Calm     97 % 0.0 mm
01:08 8.2 °C 8.0 °C 1011.1 hPa Calm     97 % 0.0 mm
01:13 8.1 °C 8.0 °C 1011.1 hPa Calm     97 % 0.0 mm
01:18 8.1 °C 8.0 °C 1011.1 hPa Calm     97 % 0.0 mm
01:23 7.8 °C 7.0 °C 1011.1 hPa Calm     97 % 0.0 mm
01:28 7.8 °C 7.0 °C 1011.1 hPa Calm     97 % 0.0 mm
01:33 7.6 °C 7.0 °C 1011.1 hPa Calm     97 % 0.0 mm
01:38 7.4 °C 7.0 °C 1011.1 hPa Calm     97 % 0.0 mm
01:43 7.3 °C 7.0 °C 1011.1 hPa Calm     97 % 0.0 mm
01:48 7.1 °C 7.0 °C 1011.1 hPa Calm     97 % 0.0 mm
01:53 7.1 °C 7.0 °C 1011.1 hPa Calm     97 % 0.0 mm
01:58 7.0 °C 7.0 °C 1011.1 hPa Calm     97 % 0.0 mm
02:03 7.0 °C 7.0 °C 1011.1 hPa Calm     97 % 0.0 mm
02:08 7.1 °C 7.0 °C 1011.1 hPa Calm     98 % 0.0 mm
02:13 7.2 °C 7.0 °C 1011.1 hPa Calm     98 % 0.0 mm
02:19 7.2 °C 7.0 °C 1011.1 hPa Calm     98 % 0.0 mm
02:24 7.2 °C 7.0 °C 1011.1 hPa Calm     98 % 0.0 mm
02:34 7.1 °C 7.0 °C 1010.0 hPa Calm     98 % 0.0 mm
02:39 7.0 °C 7.0 °C 1010.0 hPa Calm     98 % 0.0 mm
02:44 6.8 °C 7.0 °C 1010.0 hPa Calm     98 % 0.0 mm
02:49 6.8 °C 7.0 °C 1011.1 hPa Calm     98 % 0.0 mm
02:54 6.7 °C 7.0 °C 1011.1 hPa Calm     98 % 0.0 mm
02:59 6.6 °C 7.0 °C 1011.1 hPa Calm     98 % 0.0 mm
03:02 0.0 °C 7.0 °C 0.0 hPa Calm     0 % 0.0 mm
03:07 6.4 °C 6.0 °C 1011.1 hPa Calm     98 % 0.0 mm
03:12 6.3 °C 6.0 °C 1011.1 hPa Calm     98 % 0.0 mm
03:17 6.2 °C 6.0 °C 1011.1 hPa Calm     98 % 0.0 mm
03:22 6.1 °C 6.0 °C 1011.1 hPa Calm     98 % 0.0 mm
03:27 6.0 °C 6.0 °C 1011.1 hPa Calm     98 % 0.0 mm
03:32 6.0 °C 6.0 °C 1011.1 hPa Calm     98 % 0.0 mm
03:37 6.0 °C 6.0 °C 1011.1 hPa Calm     98 % 0.0 mm
03:42 6.0 °C 6.0 °C 1011.1 hPa Calm     98 % 0.0 mm
03:47 5.9 °C 6.0 °C 1010.0 hPa Calm     98 % 0.0 mm
03:52 5.8 °C 6.0 °C 1010.0 hPa Calm     98 % 0.0 mm
03:57 5.9 °C 6.0 °C 1010.0 hPa Calm     98 % 0.0 mm
04:02 5.8 °C 6.0 °C 1011.1 hPa Calm     98 % 0.0 mm
04:07 5.8 °C 6.0 °C 1011.1 hPa Calm     98 % 0.0 mm
04:12 5.8 °C 6.0 °C 1011.1 hPa Calm     98 % 0.0 mm
04:17 5.7 °C 6.0 °C 1011.1 hPa Calm     98 % 0.0 mm
04:22 5.7 °C 6.0 °C 1011.1 hPa Calm     98 % 0.0 mm
04:27 5.7 °C 6.0 °C 1011.1 hPa Calm     98 % 0.0 mm
04:32 5.8 °C 6.0 °C 1011.1 hPa Calm     98 % 0.0 mm
04:37 5.8 °C 6.0 °C 1011.1 hPa Calm     98 % 0.0 mm
04:47 5.8 °C 6.0 °C 1010.0 hPa Calm     98 % 0.0 mm
04:52 5.7 °C 6.0 °C 1010.0 hPa Calm     98 % 0.0 mm
04:57 5.7 °C 6.0 °C 1010.0 hPa Calm     98 % 0.0 mm
05:07 5.5 °C 6.0 °C 1010.0 hPa Calm     98 % 0.0 mm
05:13 5.6 °C 6.0 °C 1010.0 hPa Calm     98 % 0.0 mm
05:18 5.6 °C 6.0 °C 1011.1 hPa Calm     98 % 0.0 mm
05:20 5.6 °C 6.0 °C 1011.1 hPa Calm     98 % 0.0 mm
05:22 5.6 °C 6.0 °C 1011.1 hPa Calm     98 % 0.0 mm
05:24 5.5 °C 6.0 °C 1011.1 hPa Calm     98 % 0.0 mm
05:25 5.5 °C 6.0 °C 1011.1 hPa Calm     98 % 0.0 mm
05:30 5.4 °C 6.0 °C 1012.1 hPa Calm     98 % 0.0 mm
05:35 5.4 °C 6.0 °C 1012.1 hPa Calm     98 % 0.0 mm
05:40 5.4 °C 6.0 °C 1012.1 hPa Calm     98 % 0.0 mm
05:45 5.3 °C 6.0 °C 1011.1 hPa Calm     98 % 0.0 mm
05:51 5.3 °C 6.0 °C 1011.1 hPa Calm     98 % 0.0 mm
05:56 5.2 °C 5.0 °C 1011.1 hPa Calm     98 % 0.0 mm
06:01 5.1 °C 5.0 °C 1011.1 hPa Calm     98 % 0.0 mm
06:06 5.1 °C 5.0 °C 1011.1 hPa Calm     98 % 0.0 mm
06:11 5.0 °C 5.0 °C 1011.1 hPa Calm     98 % 0.0 mm
06:16 4.9 °C 5.0 °C 1011.1 hPa Calm     98 % 0.0 mm
06:21 4.8 °C 5.0 °C 1011.1 hPa Calm     98 % 0.0 mm
06:26 4.7 °C 5.0 °C 1011.1 hPa Calm     98 % 0.0 mm
06:31 4.7 °C 5.0 °C 1012.1 hPa Calm     98 % 0.0 mm
06:36 4.7 °C 5.0 °C 1012.1 hPa Calm     98 % 0.0 mm
06:41 4.7 °C 5.0 °C 1012.1 hPa Calm     98 % 0.0 mm
06:46 4.5 °C 5.0 °C 1012.1 hPa Calm     98 % 0.0 mm
06:51 4.4 °C 4.0 °C 1012.1 hPa Calm     98 % 0.0 mm
06:56 4.5 °C 5.0 °C 1012.1 hPa Calm     98 % 0.0 mm
07:01 4.7 °C 5.0 °C 1011.1 hPa Calm     98 % 0.0 mm
07:07 4.8 °C 5.0 °C 1011.1 hPa Calm     98 % 0.0 mm
07:12 4.8 °C 5.0 °C 1011.1 hPa Calm     98 % 0.0 mm
07:17 4.8 °C 5.0 °C 1011.1 hPa Calm     98 % 0.0 mm
07:22 4.9 °C 5.0 °C 1011.1 hPa Calm     98 % 0.0 mm
07:27 4.8 °C 5.0 °C 1011.1 hPa Calm     98 % 0.0 mm
07:32 4.8 °C 5.0 °C 1011.1 hPa Calm     98 % 0.0 mm
07:37 4.8 °C 5.0 °C 1011.1 hPa Calm     98 % 0.0 mm
07:42 4.8 °C 5.0 °C 1011.1 hPa Calm     98 % 0.0 mm
07:47 4.8 °C 5.0 °C 1011.1 hPa Calm     98 % 0.0 mm
07:52 4.9 °C 5.0 °C 1011.1 hPa Calm     98 % 0.0 mm
07:57 4.9 °C 5.0 °C 1011.1 hPa Calm     98 % 0.0 mm
08:02 5.0 °C 5.0 °C 1011.1 hPa Calm     98 % 0.0 mm
08:07 5.1 °C 5.0 °C 1011.1 hPa Calm     98 % 0.0 mm
08:12 5.3 °C 6.0 °C 1011.1 hPa Calm     98 % 0.0 mm
08:17 5.4 °C 6.0 °C 1012.1 hPa Calm     98 % 0.0 mm
08:22 5.7 °C 6.0 °C 1012.1 hPa Calm     98 % 0.0 mm
08:27 6.3 °C 6.0 °C 1012.1 hPa Calm     98 % 0.0 mm
08:32 6.9 °C 7.0 °C 1011.1 hPa Calm     98 % 0.0 mm
08:37 7.1 °C 7.0 °C 1011.1 hPa Calm     98 % 0.0 mm
08:42 7.7 °C 8.0 °C 1011.1 hPa Calm     98 % 0.0 mm
08:47 8.4 °C 9.0 °C 1011.1 hPa Calm     98 % 0.0 mm
08:52 8.9 °C 9.0 °C 1011.1 hPa Calm     98 % 0.0 mm
08:57 8.9 °C 9.0 °C 1011.1 hPa Calm     98 % 0.0 mm
09:02 9.5 °C 10.0 °C 1011.1 hPa Calm   2.6 km/h 98 % 0.0 mm
09:07 9.7 °C 10.0 °C 1011.1 hPa Calm   3.2 km/h 98 % 0.0 mm
09:12 10.0 °C 10.0 °C 1011.1 hPa Calm   3.2 km/h 98 % 0.0 mm
09:17 10.0 °C 10.0 °C 1012.1 hPa Calm   1.4 km/h 98 % 0.0 mm
09:22 10.2 °C 10.0 °C 1012.1 hPa Calm     98 % 0.0 mm
09:27 10.9 °C 11.0 °C 1012.1 hPa Calm   1.4 km/h 98 % 0.0 mm
09:30 10.9 °C 11.0 °C 1012.1 hPa Calm   1.4 km/h 98 % 0.0 mm
09:35 11.2 °C 11.0 °C 1012.1 hPa Calm   5.8 km/h 98 % 0.0 mm
09:40 11.4 °C 11.0 °C 1012.1 hPa SSW 1.8 km/h 5.8 km/h 98 % 0.0 mm
09:45 11.7 °C 12.0 °C 1012.1 hPa SSW 1.4 km/h 5.0 km/h 98 % 0.0 mm
09:50 12.1 °C 12.0 °C 1012.1 hPa SSE 1.8 km/h 1.8 km/h 98 % 0.0 mm
09:55 12.5 °C 13.0 °C 1012.1 hPa Calm   1.8 km/h 98 % 0.0 mm
10:00 12.7 °C 13.0 °C 1012.1 hPa Calm   1.4 km/h 98 % 0.0 mm
10:05 13.1 °C 13.0 °C 1012.1 hPa Calm   4.0 km/h 97 % 0.0 mm
10:10 13.3 °C 13.0 °C 1012.1 hPa SSE 1.4 km/h 4.0 km/h 96 % 0.0 mm
10:15 13.7 °C 13.0 °C 1012.1 hPa Calm   4.0 km/h 95 % 0.0 mm
10:20 13.8 °C 13.0 °C 1012.1 hPa Calm   4.3 km/h 95 % 0.0 mm
10:25 13.9 °C 13.0 °C 1012.1 hPa Calm   4.3 km/h 94 % 0.0 mm
10:30 14.0 °C 13.0 °C 1012.1 hPa Calm   4.7 km/h 93 % 0.0 mm
10:35 14.4 °C 13.0 °C 1012.1 hPa Calm   4.7 km/h 93 % 0.0 mm
10:40 14.7 °C 13.0 °C 1012.1 hPa Calm   3.5 km/h 92 % 0.0 mm
10:45 14.8 °C 13.0 °C 1013.1 hPa Calm   1.8 km/h 92 % 0.0 mm
10:50 14.8 °C 13.0 °C 1013.1 hPa Calm   1.8 km/h 91 % 0.0 mm
10:55 15.2 °C 14.0 °C 1013.1 hPa Calm     90 % 0.0 mm
11:00 15.6 °C 14.0 °C 1013.1 hPa Calm   1.4 km/h 90 % 0.0 mm
11:05 16.1 °C 14.0 °C 1013.1 hPa Calm   1.4 km/h 87 % 0.0 mm
11:10 16.2 °C 14.0 °C 1013.1 hPa Calm   4.0 km/h 87 % 0.0 mm
11:15 16.3 °C 14.0 °C 1013.1 hPa Calm   4.0 km/h 84 % 0.0 mm
11:20 16.4 °C 13.0 °C 1013.1 hPa Calm   2.6 km/h 83 % 0.0 mm
11:26 16.7 °C 13.0 °C 1013.1 hPa Calm     81 % 0.0 mm
11:31 17.0 °C 14.0 °C 1012.1 hPa SSW 3.5 km/h 4.3 km/h 80 % 0.0 mm
11:36 17.3 °C 13.0 °C 1012.1 hPa Calm   4.3 km/h 77 % 0.0 mm
11:41 17.7 °C 13.0 °C 1012.1 hPa South 4.0 km/h 6.1 km/h 75 % 0.0 mm
11:46 18.0 °C 13.0 °C 1012.1 hPa Calm   6.1 km/h 72 % 0.0 mm
11:51 18.1 °C 13.0 °C 1012.1 hPa Calm   6.1 km/h 72 % 0.0 mm
11:56 18.3 °C 13.0 °C 1012.1 hPa Calm   6.1 km/h 71 % 0.0 mm
12:01 18.3 °C 13.0 °C 1013.1 hPa Calm   5.0 km/h 69 % 0.0 mm
12:06 18.6 °C 13.0 °C 1013.1 hPa West 7.9 km/h 9.0 km/h 69 % 0.0 mm
12:11 18.6 °C 13.0 °C 1013.1 hPa Calm   9.0 km/h 67 % 0.0 mm
12:16 18.5 °C 13.0 °C 1012.1 hPa Calm   8.7 km/h 67 % 0.0 mm
12:21 19.0 °C 13.0 °C 1012.1 hPa Calm   4.3 km/h 68 % 0.0 mm
12:26 19.0 °C 13.0 °C 1012.1 hPa Calm   5.5 km/h 68 % 0.0 mm
12:31 19.2 °C 13.0 °C 1012.1 hPa SW 3.2 km/h 5.5 km/h 64 % 0.0 mm
12:36 19.2 °C 13.0 °C 1012.1 hPa Calm   9.0 km/h 64 % 0.0 mm
12:41 19.3 °C 13.0 °C 1012.1 hPa WSW 9.0 km/h 9.0 km/h 64 % 0.0 mm
12:46 19.0 °C 12.0 °C 1012.1 hPa West 6.1 km/h 10.8 km/h 63 % 0.0 mm
12:51 19.1 °C 12.0 °C 1012.1 hPa Calm   10.8 km/h 63 % 0.0 mm
12:56 19.3 °C 12.0 °C 1012.1 hPa Calm   6.1 km/h 61 % 0.0 mm
13:02 18.8 °C 11.0 °C 1013.1 hPa Calm   7.9 km/h 60 % 0.0 mm
13:07 18.8 °C 11.0 °C 1013.1 hPa Calm   7.9 km/h 61 % 0.0 mm
13:12 19.1 °C 11.0 °C 1013.1 hPa SW 5.8 km/h 5.8 km/h 60 % 0.0 mm
13:17 18.6 °C 11.0 °C 1012.1 hPa WSW 8.7 km/h 8.7 km/h 60 % 0.0 mm
13:27 18.1 °C 10.0 °C 1012.1 hPa West 6.1 km/h 8.7 km/h 60 % 0.0 mm
13:32 18.1 °C 10.0 °C 1012.1 hPa Calm   8.7 km/h 60 % 0.0 mm
13:37 19.3 °C 12.0 °C 1012.1 hPa West 5.5 km/h 9.7 km/h 60 % 0.0 mm
13:42 18.8 °C 10.0 °C 1012.1 hPa Calm   9.7 km/h 58 % 0.0 mm
13:47 18.6 °C 11.0 °C 1012.1 hPa West 8.7 km/h 10.1 km/h 59 % 0.0 mm
13:52 18.1 °C 10.0 °C 1012.1 hPa West 6.1 km/h 10.1 km/h 60 % 0.0 mm
13:57 17.6 °C 10.0 °C 1012.1 hPa Calm   6.1 km/h 60 % 0.0 mm
14:02 18.4 °C 11.0 °C 1012.1 hPa Calm   6.1 km/h 60 % 0.0 mm
14:07 18.2 °C 11.0 °C 1012.1 hPa Calm   4.7 km/h 60 % 0.0 mm
14:12 18.5 °C 11.0 °C 1012.1 hPa Calm     60 % 0.0 mm
14:17 19.3 °C 12.0 °C 1012.1 hPa Calm   6.1 km/h 60 % 0.0 mm
14:22 19.1 °C 11.0 °C 1012.1 hPa Calm   6.1 km/h 58 % 0.0 mm
14:32 19.9 °C 11.0 °C 1011.1 hPa Calm   6.9 km/h 54 % 0.0 mm
14:37 20.1 °C 10.0 °C 1011.1 hPa Calm   5.0 km/h 53 % 0.0 mm
14:42 20.4 °C 10.0 °C 1011.1 hPa West 1.4 km/h 5.5 km/h 51 % 0.0 mm
14:47 20.7 °C 10.0 °C 1011.1 hPa Calm   10.1 km/h 51 % 0.0 mm
14:52 19.7 °C 9.0 °C 1011.1 hPa SW 5.8 km/h 10.1 km/h 49 % 0.0 mm
14:57 19.0 °C 9.0 °C 1011.1 hPa Calm   8.7 km/h 51 % 0.0 mm
15:02 18.3 °C 9.0 °C 1011.1 hPa Calm   6.9 km/h 53 % 0.0 mm
15:07 18.3 °C 9.0 °C 1011.1 hPa SSW 3.5 km/h 6.9 km/h 53 % 0.0 mm
15:12 20.2 °C 10.0 °C 1011.1 hPa Calm   6.4 km/h 52 % 0.0 mm
15:17 20.7 °C 11.0 °C 1011.1 hPa Calm   6.4 km/h 52 % 0.0 mm
15:22 20.7 °C 10.0 °C 1011.1 hPa SSE 1.4 km/h 4.3 km/h 51 % 0.0 mm
15:27 20.3 °C 10.0 °C 1011.1 hPa Calm   3.5 km/h 50 % 0.0 mm
15:32 19.6 °C 9.0 °C 1011.1 hPa West 5.8 km/h 10.1 km/h 49 % 0.0 mm
15:37 19.0 °C 8.0 °C 1011.1 hPa NNW 3.2 km/h 10.1 km/h 49 % 0.0 mm
15:42 18.6 °C 8.0 °C 1011.1 hPa Calm   7.9 km/h 49 % 0.0 mm
15:48 18.1 °C 8.0 °C 1011.1 hPa Calm   6.4 km/h 50 % 0.0 mm
15:53 19.1 °C 9.0 °C 1011.1 hPa Calm   3.2 km/h 52 % 0.0 mm
15:58 20.4 °C 10.0 °C 1011.1 hPa WSW 1.8 km/h 4.3 km/h 51 % 0.0 mm
16:03 20.9 °C 10.0 °C 1011.1 hPa Calm   4.3 km/h 50 % 0.0 mm
16:08 21.0 °C 10.0 °C 1011.1 hPa Calm   4.7 km/h 48 % 0.0 mm
16:13 20.9 °C 10.0 °C 1011.1 hPa Calm   4.7 km/h 48 % 0.0 mm
16:23 20.5 °C 9.0 °C 1011.1 hPa West 5.5 km/h 9.0 km/h 47 % 0.0 mm
16:28 20.4 °C 9.0 °C 1011.1 hPa Calm   10.5 km/h 47 % 0.0 mm
16:33 20.4 °C 9.0 °C 1010.0 hPa Calm   10.5 km/h 49 % 0.0 mm
16:38 20.5 °C 11.0 °C 1010.0 hPa West 5.5 km/h 9.0 km/h 52 % 0.0 mm
16:43 20.3 °C 10.0 °C 1010.0 hPa WNW 2.1 km/h 9.3 km/h 52 % 0.0 mm
16:48 20.2 °C 10.0 °C 1011.1 hPa NW 8.7 km/h 9.3 km/h 52 % 0.0 mm
16:53 20.0 °C 11.0 °C 1011.1 hPa WNW 7.9 km/h 9.7 km/h 54 % 0.0 mm
16:58 19.9 °C 11.0 °C 1011.1 hPa North 10.5 km/h 10.5 km/h 54 % 0.0 mm
17:03 19.2 °C 10.0 °C 1011.1 hPa NNW 6.1 km/h 10.5 km/h 56 % 0.0 mm
17:08 19.3 °C 10.0 °C 1011.1 hPa NNW 7.6 km/h 10.5 km/h 55 % 0.0 mm
17:13 19.3 °C 10.0 °C 1011.1 hPa WNW 4.3 km/h 9.7 km/h 55 % 0.0 mm
17:18 18.8 °C 10.0 °C 1010.0 hPa Calm   10.5 km/h 57 % 0.0 mm
17:23 18.2 °C 10.0 °C 1010.0 hPa Calm   10.5 km/h 58 % 0.0 mm
17:28 18.1 °C 10.0 °C 1010.0 hPa WNW 6.9 km/h 6.9 km/h 58 % 0.0 mm
17:33 18.4 °C 10.0 °C 1011.1 hPa NW 4.3 km/h 10.8 km/h 58 % 0.0 mm
17:38 17.9 °C 10.0 °C 1011.1 hPa North 5.5 km/h 11.9 km/h 59 % 0.0 mm
17:44 17.7 °C 10.0 °C 1011.1 hPa North 5.0 km/h 11.9 km/h 61 % 0.0 mm
17:49 17.9 °C 9.0 °C 1011.1 hPa NNW 9.3 km/h 9.7 km/h 57 % 0.0 mm
17:54 18.2 °C 9.0 °C 1011.1 hPa NNE 9.7 km/h 10.1 km/h 56 % 0.0 mm
17:59 18.4 °C 9.0 °C 1011.1 hPa WNW 3.2 km/h 10.1 km/h 55 % 0.0 mm
18:04 18.4 °C 9.0 °C 1011.1 hPa NNE 7.6 km/h 9.7 km/h 54 % 0.0 mm
18:09 18.2 °C 9.0 °C 1011.1 hPa NNW 4.3 km/h 9.0 km/h 53 % 0.0 mm
18:14 18.4 °C 9.0 °C 1011.1 hPa WNW 5.5 km/h 9.0 km/h 55 % 0.0 mm
18:19 18.4 °C 9.0 °C 1011.1 hPa Calm   8.7 km/h 55 % 0.0 mm
18:24 18.6 °C 10.0 °C 1011.1 hPa NW 3.2 km/h 7.6 km/h 56 % 0.0 mm
18:29 18.5 °C 9.0 °C 1011.1 hPa Calm   7.9 km/h 55 % 0.0 mm
18:34 18.4 °C 9.0 °C 1011.1 hPa NNW 4.0 km/h 7.9 km/h 54 % 0.0 mm
18:39 18.3 °C 9.0 °C 1011.1 hPa Calm   7.9 km/h 54 % 0.0 mm
18:44 18.1 °C 9.0 °C 1011.1 hPa WNW 6.9 km/h 6.9 km/h 55 % 0.0 mm
18:49 17.7 °C 9.0 °C 1012.1 hPa Calm   8.7 km/h 54 % 0.0 mm
18:54 17.5 °C 9.0 °C 1012.1 hPa North 1.4 km/h 8.7 km/h 58 % 0.0 mm
18:59 17.4 °C 10.0 °C 1012.1 hPa WNW 4.0 km/h 7.6 km/h 60 % 0.0 mm
19:04 17.4 °C 10.0 °C 1012.1 hPa WNW 1.4 km/h 6.1 km/h 61 % 0.0 mm
19:09 17.0 °C 10.0 °C 1012.1 hPa North 2.1 km/h 7.9 km/h 62 % 0.0 mm
19:14 17.0 °C 10.0 °C 1012.1 hPa WNW 5.0 km/h 7.9 km/h 62 % 0.0 mm
19:19 16.4 °C 10.0 °C 1012.1 hPa Calm   9.0 km/h 67 % 0.0 mm
19:24 16.0 °C 10.0 °C 1012.1 hPa NW 2.6 km/h 9.3 km/h 69 % 0.0 mm
19:29 15.7 °C 10.0 °C 1012.1 hPa Calm   9.3 km/h 70 % 0.0 mm
19:34 15.6 °C 11.0 °C 1013.1 hPa North 5.8 km/h 6.9 km/h 71 % 0.0 mm
19:39 15.2 °C 11.0 °C 1013.1 hPa North 7.9 km/h 10.1 km/h 73 % 0.0 mm
19:44 15.2 °C 11.0 °C 1013.1 hPa WNW 6.1 km/h 10.1 km/h 73 % 0.0 mm
19:49 14.9 °C 11.0 °C 1013.1 hPa NW 4.7 km/h 7.9 km/h 75 % 0.0 mm
19:54 14.9 °C 11.0 °C 1013.1 hPa North 3.2 km/h 6.1 km/h 75 % 0.0 mm
19:59 14.7 °C 11.0 °C 1013.1 hPa North 5.5 km/h 6.1 km/h 78 % 0.0 mm
20:04 14.5 °C 11.0 °C 1013.1 hPa NNW 5.0 km/h 5.8 km/h 78 % 0.0 mm
20:09 14.4 °C 11.0 °C 1013.1 hPa Calm   6.1 km/h 78 % 0.0 mm
20:14 14.3 °C 11.0 °C 1013.1 hPa NW 5.5 km/h 6.1 km/h 79 % 0.0 mm
20:20 14.2 °C 11.0 °C 1013.1 hPa Calm   6.9 km/h 79 % 0.0 mm
20:25 13.8 °C 11.0 °C 1013.1 hPa Calm   6.9 km/h 80 % 0.0 mm
20:30 13.7 °C 11.0 °C 1013.1 hPa Calm     80 % 0.0 mm
20:35 13.5 °C 11.0 °C 1013.1 hPa Calm   1.8 km/h 80 % 0.0 mm
20:40 13.3 °C 10.0 °C 1013.1 hPa Calm   1.8 km/h 81 % 0.0 mm
20:50 12.8 °C 10.0 °C 1013.1 hPa Calm     81 % 0.0 mm
20:55 12.7 °C 10.0 °C 1013.1 hPa Calm   2.1 km/h 82 % 0.0 mm
21:00 12.7 °C 10.0 °C 1013.1 hPa Calm   2.1 km/h 82 % 0.0 mm
21:05 12.2 °C 9.0 °C 1013.1 hPa Calm     82 % 0.0 mm
21:10 12.0 °C 9.0 °C 1013.1 hPa Calm   1.4 km/h 82 % 0.0 mm
21:15 11.8 °C 9.0 °C 1013.1 hPa Calm   1.4 km/h 83 % 0.0 mm
21:20 11.7 °C 9.0 °C 1013.1 hPa Calm     83 % 0.0 mm
21:25 11.2 °C 9.0 °C 1013.1 hPa Calm     84 % 0.0 mm
21:30 11.2 °C 9.0 °C 1013.1 hPa Calm     84 % 0.0 mm
21:35 10.9 °C 9.0 °C 1013.1 hPa Calm     85 % 0.0 mm
21:40 10.7 °C 9.0 °C 1013.1 hPa Calm     85 % 0.0 mm
21:45 10.7 °C 9.0 °C 1013.1 hPa Calm     85 % 0.0 mm
21:50 10.6 °C 9.0 °C 1013.1 hPa Calm     86 % 0.0 mm
21:55 10.6 °C 9.0 °C 1013.1 hPa Calm     86 % 0.0 mm
22:00 10.5 °C 9.0 °C 1013.1 hPa Calm     87 % 0.0 mm
22:05 10.5 °C 9.0 °C 1013.1 hPa Calm     89 % 0.0 mm
22:10 10.5 °C 9.0 °C 1013.1 hPa Calm     89 % 0.0 mm
22:15 10.5 °C 9.0 °C 1013.1 hPa Calm     89 % 0.0 mm
22:20 10.6 °C 9.0 °C 1013.1 hPa Calm     91 % 0.0 mm
22:26 10.6 °C 9.0 °C 1013.1 hPa Calm     91 % 0.0 mm
22:31 10.7 °C 9.0 °C 1013.1 hPa Calm     91 % 0.0 mm
22:36 10.8 °C 9.0 °C 1013.1 hPa Calm     92 % 0.0 mm
22:41 10.9 °C 10.0 °C 1013.1 hPa Calm     92 % 0.0 mm
22:46 10.9 °C 10.0 °C 1013.1 hPa Calm     92 % 0.0 mm
22:51 10.9 °C 10.0 °C 1013.1 hPa Calm     92 % 0.0 mm
22:56 10.9 °C 10.0 °C 1013.1 hPa Calm     93 % 0.0 mm
23:01 10.8 °C 10.0 °C 1013.1 hPa Calm     93 % 0.0 mm
23:06 10.8 °C 10.0 °C 1013.1 hPa Calm     93 % 0.0 mm
23:11 10.8 °C 10.0 °C 1013.1 hPa Calm     93 % 0.0 mm
23:16 10.8 °C 10.0 °C 1014.1 hPa Calm     93 % 0.0 mm
23:21 10.8 °C 10.0 °C 1014.1 hPa Calm     93 % 0.0 mm
23:26 10.9 °C 10.0 °C 1014.1 hPa Calm     94 % 0.0 mm
23:31 10.9 °C 10.0 °C 1013.1 hPa WNW 6.9 km/h 6.9 km/h 94 % 0.0 mm
23:36 11.0 °C 10.0 °C 1013.1 hPa Calm   6.9 km/h 94 % 0.0 mm
23:41 11.0 °C 10.0 °C 1013.1 hPa West 5.0 km/h 5.5 km/h 94 % 0.0 mm
23:46 11.1 °C 10.0 °C 1013.1 hPa Calm   7.6 km/h 94 % 0.0 mm
23:56 11.0 °C 10.0 °C 1013.1 hPa Calm     94 % 0.0 mm
Le Gheer Warneton
Courtoisie de Weather Underground - 2.5 mb

Mise a jour : 16-12-17 12:06:11
Généré par Cumulus 1.9.4 (1099)